sensor_id;sensor_type;location;lat;lon;timestamp;P1;durP1;ratioP1;P2;durP2;ratioP2
15425;SDS011;7812;50.072;7.036;2022-08-21T00:02:15;5.63;;;3.27;;
15425;SDS011;7812;50.072;7.036;2022-08-21T00:04:43;4.57;;;3.17;;
15425;SDS011;7812;50.072;7.036;2022-08-21T00:07:09;6.43;;;3.40;;
15425;SDS011;7812;50.072;7.036;2022-08-21T00:09:35;4.33;;;3.03;;
15425;SDS011;7812;50.072;7.036;2022-08-21T00:12:01;4.93;;;3.10;;
15425;SDS011;7812;50.072;7.036;2022-08-21T00:14:27;5.53;;;3.30;;
15425;SDS011;7812;50.072;7.036;2022-08-21T00:16:53;5.40;;;2.87;;
15425;SDS011;7812;50.072;7.036;2022-08-21T00:19:18;8.13;;;3.47;;
15425;SDS011;7812;50.072;7.036;2022-08-21T00:21:49;3.50;;;3.00;;
15425;SDS011;7812;50.072;7.036;2022-08-21T00:24:19;8.43;;;3.20;;
15425;SDS011;7812;50.072;7.036;2022-08-21T00:26:46;3.20;;;2.90;;
15425;SDS011;7812;50.072;7.036;2022-08-21T00:29:12;5.77;;;3.10;;
15425;SDS011;7812;50.072;7.036;2022-08-21T00:31:38;3.43;;;3.07;;
15425;SDS011;7812;50.072;7.036;2022-08-21T00:34:04;5.53;;;3.70;;
15425;SDS011;7812;50.072;7.036;2022-08-21T00:36:32;5.40;;;3.20;;
15425;SDS011;7812;50.072;7.036;2022-08-21T00:38:58;5.50;;;3.20;;
15425;SDS011;7812;50.072;7.036;2022-08-21T00:41:25;4.73;;;3.10;;
15425;SDS011;7812;50.072;7.036;2022-08-21T00:43:52;4.20;;;3.50;;
15425;SDS011;7812;50.072;7.036;2022-08-21T00:46:18;6.00;;;3.30;;
15425;SDS011;7812;50.072;7.036;2022-08-21T00:48:44;5.63;;;3.50;;
15425;SDS011;7812;50.072;7.036;2022-08-21T00:51:11;6.83;;;3.20;;
15425;SDS011;7812;50.072;7.036;2022-08-21T00:53:51;5.07;;;3.13;;
15425;SDS011;7812;50.072;7.036;2022-08-21T00:56:22;4.23;;;2.97;;
15425;SDS011;7812;50.072;7.036;2022-08-21T00:58:48;5.93;;;3.10;;
15425;SDS011;7812;50.072;7.036;2022-08-21T01:01:15;3.57;;;3.03;;
15425;SDS011;7812;50.072;7.036;2022-08-21T01:03:41;4.33;;;3.00;;
15425;SDS011;7812;50.072;7.036;2022-08-21T01:06:06;6.57;;;3.10;;
15425;SDS011;7812;50.072;7.036;2022-08-21T01:08:33;5.27;;;3.37;;
15425;SDS011;7812;50.072;7.036;2022-08-21T01:10:59;6.90;;;3.40;;
15425;SDS011;7812;50.072;7.036;2022-08-21T01:13:26;6.57;;;3.07;;
15425;SDS011;7812;50.072;7.036;2022-08-21T01:15:56;5.20;;;3.70;;
15425;SDS011;7812;50.072;7.036;2022-08-21T01:18:24;3.93;;;2.97;;
15425;SDS011;7812;50.072;7.036;2022-08-21T01:23:31;4.07;;;3.23;;
15425;SDS011;7812;50.072;7.036;2022-08-21T01:25:57;5.33;;;3.60;;
15425;SDS011;7812;50.072;7.036;2022-08-21T01:28:23;5.10;;;3.27;;
15425;SDS011;7812;50.072;7.036;2022-08-21T01:30:50;5.20;;;3.30;;
15425;SDS011;7812;50.072;7.036;2022-08-21T01:33:19;4.60;;;3.10;;
15425;SDS011;7812;50.072;7.036;2022-08-21T01:35:47;5.03;;;3.53;;
15425;SDS011;7812;50.072;7.036;2022-08-21T01:38:12;4.47;;;3.33;;
15425;SDS011;7812;50.072;7.036;2022-08-21T01:40:38;6.70;;;3.10;;
15425;SDS011;7812;50.072;7.036;2022-08-21T01:43:04;6.80;;;3.30;;
15425;SDS011;7812;50.072;7.036;2022-08-21T01:45:31;3.50;;;2.93;;
15425;SDS011;7812;50.072;7.036;2022-08-21T01:47:57;5.17;;;3.33;;
15425;SDS011;7812;50.072;7.036;2022-08-21T01:50:23;4.83;;;3.70;;
15425;SDS011;7812;50.072;7.036;2022-08-21T01:52:49;4.17;;;3.33;;
15425;SDS011;7812;50.072;7.036;2022-08-21T01:55:15;4.43;;;3.30;;
15425;SDS011;7812;50.072;7.036;2022-08-21T01:57:44;8.47;;;3.30;;
15425;SDS011;7812;50.072;7.036;2022-08-21T02:00:11;5.17;;;3.33;;
15425;SDS011;7812;50.072;7.036;2022-08-21T02:02:38;5.50;;;3.10;;
15425;SDS011;7812;50.072;7.036;2022-08-21T02:05:06;5.43;;;3.10;;
15425;SDS011;7812;50.072;7.036;2022-08-21T02:07:39;7.00;;;3.37;;
15425;SDS011;7812;50.072;7.036;2022-08-21T02:10:10;4.20;;;3.50;;
15425;SDS011;7812;50.072;7.036;2022-08-21T02:12:37;6.43;;;3.70;;
15425;SDS011;7812;50.072;7.036;2022-08-21T02:15:04;5.30;;;3.00;;
15425;SDS011;7812;50.072;7.036;2022-08-21T02:17:40;7.27;;;3.30;;
15425;SDS011;7812;50.072;7.036;2022-08-21T02:20:08;5.27;;;3.43;;
15425;SDS011;7812;50.072;7.036;2022-08-21T02:22:36;5.03;;;3.20;;
15425;SDS011;7812;50.072;7.036;2022-08-21T02:25:02;5.30;;;3.53;;
15425;SDS011;7812;50.072;7.036;2022-08-21T02:27:29;6.53;;;3.70;;
15425;SDS011;7812;50.072;7.036;2022-08-21T02:29:55;4.43;;;3.20;;
15425;SDS011;7812;50.072;7.036;2022-08-21T02:32:22;3.57;;;2.97;;
15425;SDS011;7812;50.072;7.036;2022-08-21T02:34:48;4.00;;;3.03;;
15425;SDS011;7812;50.072;7.036;2022-08-21T02:37:14;4.00;;;3.23;;
15425;SDS011;7812;50.072;7.036;2022-08-21T02:39:40;5.53;;;3.30;;
15425;SDS011;7812;50.072;7.036;2022-08-21T02:42:06;6.67;;;3.30;;
15425;SDS011;7812;50.072;7.036;2022-08-21T02:44:31;4.93;;;3.37;;
15425;SDS011;7812;50.072;7.036;2022-08-21T02:46:57;5.20;;;3.50;;
15425;SDS011;7812;50.072;7.036;2022-08-21T02:49:23;4.00;;;3.03;;
15425;SDS011;7812;50.072;7.036;2022-08-21T02:51:48;4.87;;;3.00;;
15425;SDS011;7812;50.072;7.036;2022-08-21T02:54:14;4.93;;;3.00;;
15425;SDS011;7812;50.072;7.036;2022-08-21T02:56:40;5.33;;;3.40;;
15425;SDS011;7812;50.072;7.036;2022-08-21T02:59:05;5.37;;;3.10;;
15425;SDS011;7812;50.072;7.036;2022-08-21T03:01:31;4.70;;;3.50;;
15425;SDS011;7812;50.072;7.036;2022-08-21T03:03:56;4.60;;;3.00;;
15425;SDS011;7812;50.072;7.036;2022-08-21T03:06:22;3.67;;;3.10;;
15425;SDS011;7812;50.072;7.036;2022-08-21T03:08:49;4.77;;;3.13;;
15425;SDS011;7812;50.072;7.036;2022-08-21T03:11:15;5.70;;;3.63;;
15425;SDS011;7812;50.072;7.036;2022-08-21T03:13:42;5.20;;;3.60;;
15425;SDS011;7812;50.072;7.036;2022-08-21T03:16:08;6.87;;;3.73;;
15425;SDS011;7812;50.072;7.036;2022-08-21T03:18:36;4.60;;;3.20;;
15425;SDS011;7812;50.072;7.036;2022-08-21T03:21:02;5.67;;;3.40;;
15425;SDS011;7812;50.072;7.036;2022-08-21T03:23:28;3.83;;;3.30;;
15425;SDS011;7812;50.072;7.036;2022-08-21T03:25:55;4.53;;;3.37;;
15425;SDS011;7812;50.072;7.036;2022-08-21T03:28:21;3.97;;;3.03;;
15425;SDS011;7812;50.072;7.036;2022-08-21T03:30:48;3.87;;;3.10;;
15425;SDS011;7812;50.072;7.036;2022-08-21T03:33:15;8.53;;;3.63;;
15425;SDS011;7812;50.072;7.036;2022-08-21T03:35:45;4.93;;;3.40;;
15425;SDS011;7812;50.072;7.036;2022-08-21T03:38:14;6.80;;;3.70;;
15425;SDS011;7812;50.072;7.036;2022-08-21T03:40:40;5.57;;;3.60;;
15425;SDS011;7812;50.072;7.036;2022-08-21T03:43:07;6.83;;;3.53;;
15425;SDS011;7812;50.072;7.036;2022-08-21T03:45:34;6.03;;;3.47;;
15425;SDS011;7812;50.072;7.036;2022-08-21T03:48:02;4.67;;;3.10;;
15425;SDS011;7812;50.072;7.036;2022-08-21T03:50:30;5.37;;;3.60;;
15425;SDS011;7812;50.072;7.036;2022-08-21T03:52:59;5.03;;;3.30;;
15425;SDS011;7812;50.072;7.036;2022-08-21T03:55:26;4.67;;;3.30;;
15425;SDS011;7812;50.072;7.036;2022-08-21T03:57:52;4.10;;;3.23;;
15425;SDS011;7812;50.072;7.036;2022-08-21T04:00:19;5.13;;;3.40;;
15425;SDS011;7812;50.072;7.036;2022-08-21T04:02:45;3.63;;;3.33;;
15425;SDS011;7812;50.072;7.036;2022-08-21T04:05:12;6.07;;;3.47;;
15425;SDS011;7812;50.072;7.036;2022-08-21T04:07:51;5.33;;;3.57;;
15425;SDS011;7812;50.072;7.036;2022-08-21T04:10:18;4.27;;;3.70;;
15425;SDS011;7812;50.072;7.036;2022-08-21T04:12:45;4.40;;;3.53;;
15425;SDS011;7812;50.072;7.036;2022-08-21T04:15:11;4.63;;;3.10;;
15425;SDS011;7812;50.072;7.036;2022-08-21T04:17:37;5.07;;;3.43;;
15425;SDS011;7812;50.072;7.036;2022-08-21T04:20:04;6.47;;;3.83;;
15425;SDS011;7812;50.072;7.036;2022-08-21T04:22:30;5.20;;;3.23;;
15425;SDS011;7812;50.072;7.036;2022-08-21T04:24:55;4.47;;;3.27;;
15425;SDS011;7812;50.072;7.036;2022-08-21T04:27:21;5.27;;;3.43;;
15425;SDS011;7812;50.072;7.036;2022-08-21T04:29:46;4.10;;;3.50;;
15425;SDS011;7812;50.072;7.036;2022-08-21T04:32:12;6.60;;;3.70;;
15425;SDS011;7812;50.072;7.036;2022-08-21T04:34:38;5.03;;;3.70;;
15425;SDS011;7812;50.072;7.036;2022-08-21T04:37:03;3.50;;;3.20;;
15425;SDS011;7812;50.072;7.036;2022-08-21T04:39:29;4.53;;;3.53;;
15425;SDS011;7812;50.072;7.036;2022-08-21T04:41:55;3.93;;;3.27;;
15425;SDS011;7812;50.072;7.036;2022-08-21T04:44:21;5.20;;;3.10;;
15425;SDS011;7812;50.072;7.036;2022-08-21T04:46:47;6.20;;;3.70;;
15425;SDS011;7812;50.072;7.036;2022-08-21T04:49:12;4.47;;;3.50;;
15425;SDS011;7812;50.072;7.036;2022-08-21T04:51:38;3.97;;;3.07;;
15425;SDS011;7812;50.072;7.036;2022-08-21T04:54:12;4.63;;;3.33;;
15425;SDS011;7812;50.072;7.036;2022-08-21T04:59:12;4.37;;;3.40;;
15425;SDS011;7812;50.072;7.036;2022-08-21T05:01:41;5.63;;;3.30;;
15425;SDS011;7812;50.072;7.036;2022-08-21T05:04:08;5.57;;;4.10;;
15425;SDS011;7812;50.072;7.036;2022-08-21T05:06:37;4.00;;;2.80;;
15425;SDS011;7812;50.072;7.036;2022-08-21T05:09:07;4.50;;;3.40;;
15425;SDS011;7812;50.072;7.036;2022-08-21T05:11:36;4.33;;;3.17;;
15425;SDS011;7812;50.072;7.036;2022-08-21T05:14:02;4.83;;;3.20;;
15425;SDS011;7812;50.072;7.036;2022-08-21T05:16:28;4.60;;;3.60;;
15425;SDS011;7812;50.072;7.036;2022-08-21T05:18:54;6.43;;;3.63;;
15425;SDS011;7812;50.072;7.036;2022-08-21T05:21:19;5.33;;;3.23;;
15425;SDS011;7812;50.072;7.036;2022-08-21T05:23:45;5.90;;;3.33;;
15425;SDS011;7812;50.072;7.036;2022-08-21T05:26:11;3.70;;;3.23;;
15425;SDS011;7812;50.072;7.036;2022-08-21T05:28:37;5.33;;;3.40;;
15425;SDS011;7812;50.072;7.036;2022-08-21T05:31:03;5.03;;;3.23;;
15425;SDS011;7812;50.072;7.036;2022-08-21T05:33:29;4.60;;;3.40;;
15425;SDS011;7812;50.072;7.036;2022-08-21T05:35:54;6.10;;;3.73;;
15425;SDS011;7812;50.072;7.036;2022-08-21T05:38:21;4.00;;;2.93;;
15425;SDS011;7812;50.072;7.036;2022-08-21T05:40:52;6.50;;;3.30;;
15425;SDS011;7812;50.072;7.036;2022-08-21T05:43:18;7.00;;;3.30;;
15425;SDS011;7812;50.072;7.036;2022-08-21T05:45:44;4.03;;;3.53;;
15425;SDS011;7812;50.072;7.036;2022-08-21T05:50:36;4.23;;;3.00;;
15425;SDS011;7812;50.072;7.036;2022-08-21T05:53:03;3.37;;;2.70;;
15425;SDS011;7812;50.072;7.036;2022-08-21T05:55:29;3.73;;;3.03;;
15425;SDS011;7812;50.072;7.036;2022-08-21T05:57:55;4.23;;;2.90;;
15425;SDS011;7812;50.072;7.036;2022-08-21T06:00:20;3.60;;;2.60;;
15425;SDS011;7812;50.072;7.036;2022-08-21T06:02:47;3.77;;;2.97;;
15425;SDS011;7812;50.072;7.036;2022-08-21T06:05:14;3.30;;;2.63;;
15425;SDS011;7812;50.072;7.036;2022-08-21T06:07:40;5.40;;;2.70;;
15425;SDS011;7812;50.072;7.036;2022-08-21T06:10:07;5.17;;;2.50;;
15425;SDS011;7812;50.072;7.036;2022-08-21T06:12:38;5.57;;;3.00;;
15425;SDS011;7812;50.072;7.036;2022-08-21T06:15:07;3.20;;;2.67;;
15425;SDS011;7812;50.072;7.036;2022-08-21T06:17:33;4.63;;;3.07;;
15425;SDS011;7812;50.072;7.036;2022-08-21T06:19:59;3.30;;;2.47;;
15425;SDS011;7812;50.072;7.036;2022-08-21T06:22:24;2.90;;;2.60;;
15425;SDS011;7812;50.072;7.036;2022-08-21T06:24:50;3.40;;;2.53;;
15425;SDS011;7812;50.072;7.036;2022-08-21T06:27:16;3.17;;;2.37;;
15425;SDS011;7812;50.072;7.036;2022-08-21T06:29:42;4.37;;;2.67;;
15425;SDS011;7812;50.072;7.036;2022-08-21T06:32:12;4.27;;;2.40;;
15425;SDS011;7812;50.072;7.036;2022-08-21T06:34:39;3.57;;;2.57;;
15425;SDS011;7812;50.072;7.036;2022-08-21T06:37:06;3.37;;;2.37;;
15425;SDS011;7812;50.072;7.036;2022-08-21T06:39:32;4.33;;;2.57;;
15425;SDS011;7812;50.072;7.036;2022-08-21T06:41:58;4.03;;;2.50;;
15425;SDS011;7812;50.072;7.036;2022-08-21T06:44:24;3.60;;;2.13;;
15425;SDS011;7812;50.072;7.036;2022-08-21T06:46:50;3.10;;;2.10;;
15425;SDS011;7812;50.072;7.036;2022-08-21T06:49:16;3.13;;;2.37;;
15425;SDS011;7812;50.072;7.036;2022-08-21T06:51:41;3.53;;;2.33;;
15425;SDS011;7812;50.072;7.036;2022-08-21T06:54:07;4.93;;;2.20;;
15425;SDS011;7812;50.072;7.036;2022-08-21T06:56:34;2.50;;;2.30;;
15425;SDS011;7812;50.072;7.036;2022-08-21T06:59:03;2.90;;;2.60;;
15425;SDS011;7812;50.072;7.036;2022-08-21T07:01:30;5.07;;;2.30;;
15425;SDS011;7812;50.072;7.036;2022-08-21T07:03:56;3.77;;;2.17;;
15425;SDS011;7812;50.072;7.036;2022-08-21T07:06:22;3.23;;;2.40;;
15425;SDS011;7812;50.072;7.036;2022-08-21T07:08:48;3.33;;;2.40;;
15425;SDS011;7812;50.072;7.036;2022-08-21T07:11:18;4.23;;;2.37;;
15425;SDS011;7812;50.072;7.036;2022-08-21T07:13:46;4.63;;;2.57;;
15425;SDS011;7812;50.072;7.036;2022-08-21T07:16:12;3.60;;;2.47;;
15425;SDS011;7812;50.072;7.036;2022-08-21T07:18:38;2.67;;;2.10;;
15425;SDS011;7812;50.072;7.036;2022-08-21T07:21:04;2.93;;;2.00;;
15425;SDS011;7812;50.072;7.036;2022-08-21T07:23:34;3.70;;;2.17;;
15425;SDS011;7812;50.072;7.036;2022-08-21T07:26:03;2.67;;;2.20;;
15425;SDS011;7812;50.072;7.036;2022-08-21T07:28:29;4.00;;;2.03;;
15425;SDS011;7812;50.072;7.036;2022-08-21T07:30:56;4.83;;;2.27;;
15425;SDS011;7812;50.072;7.036;2022-08-21T07:33:24;3.07;;;2.13;;
15425;SDS011;7812;50.072;7.036;2022-08-21T07:35:51;4.73;;;2.13;;
15425;SDS011;7812;50.072;7.036;2022-08-21T07:38:17;4.07;;;2.07;;
15425;SDS011;7812;50.072;7.036;2022-08-21T07:40:44;3.23;;;2.03;;
15425;SDS011;7812;50.072;7.036;2022-08-21T07:43:10;3.07;;;2.40;;
15425;SDS011;7812;50.072;7.036;2022-08-21T07:45:36;2.67;;;2.10;;
15425;SDS011;7812;50.072;7.036;2022-08-21T07:48:03;3.17;;;2.03;;
15425;SDS011;7812;50.072;7.036;2022-08-21T07:50:29;3.30;;;2.10;;
15425;SDS011;7812;50.072;7.036;2022-08-21T07:52:55;3.20;;;2.63;;
15425;SDS011;7812;50.072;7.036;2022-08-21T07:55:23;2.53;;;1.90;;
15425;SDS011;7812;50.072;7.036;2022-08-21T07:57:49;3.77;;;2.10;;
15425;SDS011;7812;50.072;7.036;2022-08-21T08:00:16;3.07;;;2.00;;
15425;SDS011;7812;50.072;7.036;2022-08-21T08:02:45;2.90;;;2.00;;
15425;SDS011;7812;50.072;7.036;2022-08-21T08:05:19;3.57;;;2.00;;
15425;SDS011;7812;50.072;7.036;2022-08-21T08:07:47;3.73;;;1.67;;
15425;SDS011;7812;50.072;7.036;2022-08-21T08:10:13;4.47;;;2.37;;
15425;SDS011;7812;50.072;7.036;2022-08-21T08:12:40;3.03;;;1.90;;
15425;SDS011;7812;50.072;7.036;2022-08-21T08:15:09;5.27;;;2.20;;
15425;SDS011;7812;50.072;7.036;2022-08-21T08:17:37;4.50;;;2.30;;
15425;SDS011;7812;50.072;7.036;2022-08-21T08:20:03;2.93;;;2.10;;
15425;SDS011;7812;50.072;7.036;2022-08-21T08:22:31;6.57;;;2.23;;
15425;SDS011;7812;50.072;7.036;2022-08-21T08:24:58;3.57;;;2.40;;
15425;SDS011;7812;50.072;7.036;2022-08-21T08:27:25;4.73;;;2.47;;
15425;SDS011;7812;50.072;7.036;2022-08-21T08:29:50;4.60;;;2.37;;
15425;SDS011;7812;50.072;7.036;2022-08-21T08:32:16;3.80;;;2.00;;
15425;SDS011;7812;50.072;7.036;2022-08-21T08:34:43;3.37;;;2.20;;
15425;SDS011;7812;50.072;7.036;2022-08-21T08:37:09;4.37;;;2.20;;
15425;SDS011;7812;50.072;7.036;2022-08-21T08:39:35;3.70;;;2.03;;
15425;SDS011;7812;50.072;7.036;2022-08-21T08:42:06;3.57;;;2.10;;
15425;SDS011;7812;50.072;7.036;2022-08-21T08:44:41;4.03;;;2.00;;
15425;SDS011;7812;50.072;7.036;2022-08-21T08:47:09;2.73;;;1.90;;
15425;SDS011;7812;50.072;7.036;2022-08-21T08:49:40;3.90;;;2.30;;
15425;SDS011;7812;50.072;7.036;2022-08-21T08:52:27;3.03;;;2.17;;
15425;SDS011;7812;50.072;7.036;2022-08-21T08:54:59;4.60;;;2.33;;
15425;SDS011;7812;50.072;7.036;2022-08-21T08:57:29;2.43;;;1.80;;
15425;SDS011;7812;50.072;7.036;2022-08-21T08:59:57;4.20;;;2.07;;
15425;SDS011;7812;50.072;7.036;2022-08-21T09:02:25;6.13;;;2.13;;
15425;SDS011;7812;50.072;7.036;2022-08-21T09:04:52;4.27;;;2.13;;
15425;SDS011;7812;50.072;7.036;2022-08-21T09:10:18;4.40;;;2.40;;
15425;SDS011;7812;50.072;7.036;2022-08-21T09:15:21;3.73;;;2.03;;
15425;SDS011;7812;50.072;7.036;2022-08-21T09:26:25;3.17;;;1.83;;
15425;SDS011;7812;50.072;7.036;2022-08-21T09:28:56;3.03;;;2.10;;
15425;SDS011;7812;50.072;7.036;2022-08-21T09:31:33;4.80;;;2.13;;
15425;SDS011;7812;50.072;7.036;2022-08-21T09:34:10;2.87;;;1.80;;
15425;SDS011;7812;50.072;7.036;2022-08-21T09:39:06;4.37;;;1.97;;
15425;SDS011;7812;50.072;7.036;2022-08-21T09:41:34;3.03;;;1.90;;
15425;SDS011;7812;50.072;7.036;2022-08-21T09:44:00;4.27;;;2.47;;
15425;SDS011;7812;50.072;7.036;2022-08-21T09:46:27;3.03;;;2.00;;
15425;SDS011;7812;50.072;7.036;2022-08-21T09:48:54;3.40;;;1.73;;
15425;SDS011;7812;50.072;7.036;2022-08-21T09:51:25;5.23;;;2.13;;
15425;SDS011;7812;50.072;7.036;2022-08-21T09:53:53;3.40;;;2.00;;
15425;SDS011;7812;50.072;7.036;2022-08-21T09:59:17;4.93;;;2.00;;
15425;SDS011;7812;50.072;7.036;2022-08-21T10:01:47;6.23;;;1.83;;
15425;SDS011;7812;50.072;7.036;2022-08-21T10:04:18;3.80;;;1.70;;
15425;SDS011;7812;50.072;7.036;2022-08-21T10:06:46;4.03;;;2.00;;
15425;SDS011;7812;50.072;7.036;2022-08-21T10:09:20;5.00;;;1.93;;
15425;SDS011;7812;50.072;7.036;2022-08-21T10:12:20;2.90;;;2.23;;
15425;SDS011;7812;50.072;7.036;2022-08-21T10:24:51;3.77;;;2.10;;
15425;SDS011;7812;50.072;7.036;2022-08-21T10:27:43;4.13;;;1.97;;
15425;SDS011;7812;50.072;7.036;2022-08-21T10:30:12;4.93;;;1.80;;
15425;SDS011;7812;50.072;7.036;2022-08-21T10:33:16;3.67;;;2.10;;
15425;SDS011;7812;50.072;7.036;2022-08-21T10:38:58;2.03;;;1.50;;
15425;SDS011;7812;50.072;7.036;2022-08-21T10:55:52;2.27;;;1.67;;
15425;SDS011;7812;50.072;7.036;2022-08-21T10:58:29;2.13;;;1.67;;
15425;SDS011;7812;50.072;7.036;2022-08-21T11:01:12;4.13;;;2.00;;
15425;SDS011;7812;50.072;7.036;2022-08-21T11:03:53;3.90;;;1.80;;
15425;SDS011;7812;50.072;7.036;2022-08-21T11:06:35;3.50;;;1.77;;
15425;SDS011;7812;50.072;7.036;2022-08-21T11:09:15;3.33;;;1.93;;
15425;SDS011;7812;50.072;7.036;2022-08-21T11:11:57;3.60;;;1.90;;
15425;SDS011;7812;50.072;7.036;2022-08-21T11:17:22;2.70;;;1.90;;
15425;SDS011;7812;50.072;7.036;2022-08-21T11:30:10;3.60;;;1.97;;
15425;SDS011;7812;50.072;7.036;2022-08-21T11:48:57;5.07;;;1.80;;
15425;SDS011;7812;50.072;7.036;2022-08-21T11:51:48;3.33;;;1.60;;
15425;SDS011;7812;50.072;7.036;2022-08-21T11:54:37;2.23;;;1.50;;
15425;SDS011;7812;50.072;7.036;2022-08-21T11:58:02;2.50;;;1.63;;
15425;SDS011;7812;50.072;7.036;2022-08-21T12:00:34;2.47;;;1.60;;
15425;SDS011;7812;50.072;7.036;2022-08-21T12:03:14;3.70;;;1.57;;
15425;SDS011;7812;50.072;7.036;2022-08-21T12:05:58;3.00;;;1.70;;
15425;SDS011;7812;50.072;7.036;2022-08-21T12:08:38;3.33;;;1.63;;
15425;SDS011;7812;50.072;7.036;2022-08-21T12:11:10;2.67;;;1.60;;
15425;SDS011;7812;50.072;7.036;2022-08-21T12:26:53;4.87;;;1.93;;
15425;SDS011;7812;50.072;7.036;2022-08-21T12:29:30;1.97;;;1.40;;
15425;SDS011;7812;50.072;7.036;2022-08-21T12:32:03;1.87;;;1.20;;
15425;SDS011;7812;50.072;7.036;2022-08-21T12:37:13;4.50;;;1.83;;
15425;SDS011;7812;50.072;7.036;2022-08-21T12:39:46;3.00;;;1.50;;
15425;SDS011;7812;50.072;7.036;2022-08-21T12:42:20;3.00;;;1.60;;
15425;SDS011;7812;50.072;7.036;2022-08-21T12:44:57;2.87;;;1.60;;
15425;SDS011;7812;50.072;7.036;2022-08-21T12:52:35;2.80;;;1.50;;
15425;SDS011;7812;50.072;7.036;2022-08-21T12:55:06;2.27;;;1.40;;
15425;SDS011;7812;50.072;7.036;2022-08-21T12:57:36;2.47;;;1.70;;
15425;SDS011;7812;50.072;7.036;2022-08-21T13:00:05;3.17;;;1.70;;
15425;SDS011;7812;50.072;7.036;2022-08-21T13:02:38;3.43;;;1.80;;
15425;SDS011;7812;50.072;7.036;2022-08-21T13:05:11;3.73;;;1.70;;
15425;SDS011;7812;50.072;7.036;2022-08-21T13:07:42;4.00;;;2.10;;
15425;SDS011;7812;50.072;7.036;2022-08-21T13:10:16;2.83;;;1.30;;
15425;SDS011;7812;50.072;7.036;2022-08-21T13:12:45;3.00;;;1.70;;
15425;SDS011;7812;50.072;7.036;2022-08-21T13:15:12;3.77;;;1.63;;
15425;SDS011;7812;50.072;7.036;2022-08-21T13:17:40;3.37;;;1.70;;
15425;SDS011;7812;50.072;7.036;2022-08-21T13:20:34;1.23;;;1.10;;
15425;SDS011;7812;50.072;7.036;2022-08-21T13:23:20;2.03;;;1.30;;
15425;SDS011;7812;50.072;7.036;2022-08-21T13:25:54;2.90;;;1.80;;
15425;SDS011;7812;50.072;7.036;2022-08-21T13:28:23;4.40;;;1.53;;
15425;SDS011;7812;50.072;7.036;2022-08-21T13:30:59;2.33;;;1.53;;
15425;SDS011;7812;50.072;7.036;2022-08-21T13:33:26;4.33;;;1.73;;
15425;SDS011;7812;50.072;7.036;2022-08-21T13:38:33;2.20;;;1.53;;
15425;SDS011;7812;50.072;7.036;2022-08-21T13:41:04;2.63;;;1.30;;
15425;SDS011;7812;50.072;7.036;2022-08-21T13:43:49;3.50;;;1.60;;
15425;SDS011;7812;50.072;7.036;2022-08-21T13:46:22;3.30;;;1.50;;
15425;SDS011;7812;50.072;7.036;2022-08-21T13:48:51;2.93;;;1.83;;
15425;SDS011;7812;50.072;7.036;2022-08-21T13:51:18;4.93;;;2.00;;
15425;SDS011;7812;50.072;7.036;2022-08-21T13:53:46;2.97;;;1.50;;
15425;SDS011;7812;50.072;7.036;2022-08-21T13:59:06;2.90;;;1.63;;
15425;SDS011;7812;50.072;7.036;2022-08-21T14:04:34;2.97;;;1.43;;
15425;SDS011;7812;50.072;7.036;2022-08-21T14:07:02;2.20;;;1.47;;
15425;SDS011;7812;50.072;7.036;2022-08-21T14:09:41;1.73;;;1.43;;
15425;SDS011;7812;50.072;7.036;2022-08-21T14:14:50;2.20;;;1.30;;
15425;SDS011;7812;50.072;7.036;2022-08-21T14:17:28;2.30;;;1.47;;
15425;SDS011;7812;50.072;7.036;2022-08-21T14:19:57;2.60;;;1.60;;
15425;SDS011;7812;50.072;7.036;2022-08-21T14:25:03;2.57;;;1.63;;
15425;SDS011;7812;50.072;7.036;2022-08-21T14:27:30;2.50;;;1.33;;
15425;SDS011;7812;50.072;7.036;2022-08-21T14:29:58;4.20;;;1.90;;
15425;SDS011;7812;50.072;7.036;2022-08-21T14:32:27;3.80;;;1.63;;
15425;SDS011;7812;50.072;7.036;2022-08-21T14:34:55;2.90;;;1.70;;
15425;SDS011;7812;50.072;7.036;2022-08-21T14:37:22;3.57;;;2.00;;
15425;SDS011;7812;50.072;7.036;2022-08-21T14:39:48;2.83;;;1.53;;
15425;SDS011;7812;50.072;7.036;2022-08-21T14:42:16;2.97;;;1.73;;
15425;SDS011;7812;50.072;7.036;2022-08-21T14:44:41;4.30;;;1.70;;
15425;SDS011;7812;50.072;7.036;2022-08-21T14:47:07;3.77;;;1.70;;
15425;SDS011;7812;50.072;7.036;2022-08-21T14:49:34;4.10;;;1.87;;
15425;SDS011;7812;50.072;7.036;2022-08-21T14:52:00;5.83;;;1.97;;
15425;SDS011;7812;50.072;7.036;2022-08-21T14:54:26;2.40;;;1.33;;
15425;SDS011;7812;50.072;7.036;2022-08-21T14:56:54;2.57;;;1.43;;
15425;SDS011;7812;50.072;7.036;2022-08-21T14:59:21;2.47;;;1.40;;
15425;SDS011;7812;50.072;7.036;2022-08-21T15:01:48;4.07;;;1.77;;
15425;SDS011;7812;50.072;7.036;2022-08-21T15:04:14;4.07;;;1.80;;
15425;SDS011;7812;50.072;7.036;2022-08-21T15:06:40;1.53;;;1.13;;
15425;SDS011;7812;50.072;7.036;2022-08-21T15:09:11;3.70;;;2.13;;
15425;SDS011;7812;50.072;7.036;2022-08-21T15:11:37;3.27;;;1.57;;
15425;SDS011;7812;50.072;7.036;2022-08-21T15:14:03;3.33;;;1.83;;
15425;SDS011;7812;50.072;7.036;2022-08-21T15:16:32;1.80;;;1.23;;
15425;SDS011;7812;50.072;7.036;2022-08-21T15:18:59;3.30;;;1.73;;
15425;SDS011;7812;50.072;7.036;2022-08-21T15:21:25;2.67;;;1.70;;
15425;SDS011;7812;50.072;7.036;2022-08-21T15:23:52;3.90;;;1.90;;
15425;SDS011;7812;50.072;7.036;2022-08-21T15:26:19;2.20;;;1.50;;
15425;SDS011;7812;50.072;7.036;2022-08-21T15:28:46;3.37;;;1.37;;
15425;SDS011;7812;50.072;7.036;2022-08-21T15:31:12;1.80;;;1.30;;
15425;SDS011;7812;50.072;7.036;2022-08-21T15:33:38;4.40;;;1.70;;
15425;SDS011;7812;50.072;7.036;2022-08-21T15:36:03;1.80;;;1.27;;
15425;SDS011;7812;50.072;7.036;2022-08-21T15:38:29;2.03;;;1.53;;
15425;SDS011;7812;50.072;7.036;2022-08-21T15:40:55;2.20;;;1.47;;
15425;SDS011;7812;50.072;7.036;2022-08-21T15:45:58;2.33;;;1.47;;
15425;SDS011;7812;50.072;7.036;2022-08-21T15:48:25;2.40;;;1.37;;
15425;SDS011;7812;50.072;7.036;2022-08-21T15:50:51;2.97;;;1.53;;
15425;SDS011;7812;50.072;7.036;2022-08-21T15:53:17;3.23;;;1.43;;
15425;SDS011;7812;50.072;7.036;2022-08-21T15:55:42;3.63;;;1.43;;
15425;SDS011;7812;50.072;7.036;2022-08-21T15:58:12;2.93;;;1.20;;
15425;SDS011;7812;50.072;7.036;2022-08-21T16:00:42;3.63;;;1.83;;
15425;SDS011;7812;50.072;7.036;2022-08-21T16:03:09;2.30;;;1.53;;
15425;SDS011;7812;50.072;7.036;2022-08-21T16:05:41;3.63;;;1.63;;
15425;SDS011;7812;50.072;7.036;2022-08-21T16:08:08;2.13;;;1.13;;
15425;SDS011;7812;50.072;7.036;2022-08-21T16:10:35;2.53;;;1.40;;
15425;SDS011;7812;50.072;7.036;2022-08-21T16:13:06;3.13;;;1.53;;
15425;SDS011;7812;50.072;7.036;2022-08-21T16:15:41;3.00;;;1.70;;
15425;SDS011;7812;50.072;7.036;2022-08-21T16:18:07;3.03;;;1.57;;
15425;SDS011;7812;50.072;7.036;2022-08-21T16:20:32;3.03;;;1.50;;
15425;SDS011;7812;50.072;7.036;2022-08-21T16:22:59;4.53;;;1.30;;
15425;SDS011;7812;50.072;7.036;2022-08-21T16:25:25;2.80;;;1.47;;
15425;SDS011;7812;50.072;7.036;2022-08-21T16:27:52;2.37;;;1.30;;
15425;SDS011;7812;50.072;7.036;2022-08-21T16:30:21;2.97;;;1.40;;
15425;SDS011;7812;50.072;7.036;2022-08-21T16:32:47;2.10;;;1.40;;
15425;SDS011;7812;50.072;7.036;2022-08-21T16:35:14;3.27;;;1.20;;
15425;SDS011;7812;50.072;7.036;2022-08-21T16:37:43;2.67;;;1.30;;
15425;SDS011;7812;50.072;7.036;2022-08-21T16:40:09;3.23;;;1.60;;
15425;SDS011;7812;50.072;7.036;2022-08-21T16:42:36;1.43;;;1.00;;
15425;SDS011;7812;50.072;7.036;2022-08-21T16:45:05;2.17;;;1.40;;
15425;SDS011;7812;50.072;7.036;2022-08-21T16:47:32;1.90;;;1.30;;
15425;SDS011;7812;50.072;7.036;2022-08-21T16:49:58;2.07;;;1.30;;
15425;SDS011;7812;50.072;7.036;2022-08-21T16:52:24;2.07;;;1.40;;
15425;SDS011;7812;50.072;7.036;2022-08-21T16:54:50;1.83;;;1.40;;
15425;SDS011;7812;50.072;7.036;2022-08-21T16:57:16;2.70;;;1.40;;
15425;SDS011;7812;50.072;7.036;2022-08-21T16:59:42;2.57;;;1.30;;
15425;SDS011;7812;50.072;7.036;2022-08-21T17:02:23;2.07;;;1.17;;
15425;SDS011;7812;50.072;7.036;2022-08-21T17:04:53;2.37;;;1.63;;
15425;SDS011;7812;50.072;7.036;2022-08-21T17:07:20;1.97;;;1.43;;
15425;SDS011;7812;50.072;7.036;2022-08-21T17:09:45;2.80;;;1.40;;
15425;SDS011;7812;50.072;7.036;2022-08-21T17:12:11;3.83;;;1.30;;